createdAt,value
2023-11-23T00:00:56.338Z,13.98
2023-11-23T00:05:57.573Z,13.88
2023-11-23T00:10:58.832Z,14.07
2023-11-23T00:16:00.117Z,14.60
2023-11-23T00:21:01.407Z,14.88
2023-11-23T00:26:02.663Z,14.68
2023-11-23T00:31:03.928Z,14.27
2023-11-23T00:36:05.369Z,15.65
2023-11-23T00:41:06.759Z,16.15
2023-11-23T00:46:07.984Z,15.80
2023-11-23T00:51:09.322Z,17.23
2023-11-23T00:56:10.654Z,16.98
2023-11-23T01:01:15.786Z,15.43
2023-11-23T01:06:17.124Z,15.85
2023-11-23T01:11:18.385Z,17.00
2023-11-23T01:16:19.639Z,18.52
2023-11-23T01:21:20.919Z,17.08
2023-11-23T01:26:22.200Z,16.85
2023-11-23T01:31:23.476Z,17.10
2023-11-23T01:36:24.698Z,16.42
2023-11-23T01:41:25.961Z,14.75
2023-11-23T01:46:27.213Z,17.25
2023-11-23T01:51:28.558Z,17.85
2023-11-23T01:56:30.789Z,18.02
2023-11-23T02:01:32.096Z,15.95
2023-11-23T02:06:33.352Z,15.10
2023-11-23T02:11:35.220Z,15.48
2023-11-23T02:16:36.501Z,13.60
2023-11-23T02:21:37.820Z,13.75
2023-11-23T02:26:39.042Z,15.73
2023-11-23T02:31:40.289Z,15.57
2023-11-23T02:36:41.539Z,14.80
2023-11-23T02:41:43.243Z,14.65
2023-11-23T02:46:44.511Z,14.90
2023-11-23T02:51:46.020Z,15.18
2023-11-23T02:56:47.311Z,14.88
2023-11-23T03:01:48.691Z,13.07
2023-11-23T03:06:50.014Z,15.10
2023-11-23T03:11:51.343Z,13.27
2023-11-23T03:16:52.853Z,13.80
2023-11-23T03:21:54.188Z,14.15
2023-11-23T03:26:55.543Z,13.75
2023-11-23T03:31:56.852Z,12.70
2023-11-23T03:36:58.269Z,14.00
2023-11-23T03:41:59.532Z,12.45
2023-11-23T03:47:00.779Z,13.23
2023-11-23T03:52:02.208Z,15.07
2023-11-23T03:57:03.724Z,12.93
2023-11-23T04:02:05.113Z,12.90
2023-11-23T04:07:06.440Z,12.07
2023-11-23T04:12:07.748Z,12.80
2023-11-23T04:17:09.055Z,12.20
2023-11-23T04:22:10.419Z,12.32
2023-11-23T04:27:11.758Z,11.73
2023-11-23T04:32:13.114Z,11.90
2023-11-23T04:37:14.350Z,11.60
2023-11-23T04:42:15.680Z,9.95
2023-11-23T04:47:16.960Z,10.65
2023-11-23T04:52:18.257Z,10.60
2023-11-23T04:57:19.690Z,9.18
2023-11-23T05:02:20.939Z,10.30
2023-11-23T05:07:22.187Z,9.90
2023-11-23T05:12:23.521Z,7.63
2023-11-23T05:17:24.814Z,8.48
2023-11-23T05:22:26.065Z,7.75
2023-11-23T05:27:27.376Z,7.32
2023-11-23T05:32:28.684Z,7.57
2023-11-23T05:37:29.957Z,8.38
2023-11-23T05:42:31.323Z,7.25
2023-11-23T05:47:32.638Z,7.65
2023-11-23T05:52:33.964Z,6.45
2023-11-23T05:57:35.329Z,5.78
2023-11-23T06:02:36.650Z,6.32
2023-11-23T06:07:37.925Z,5.18
2023-11-23T06:12:39.444Z,4.68
2023-11-23T06:17:40.713Z,4.07
2023-11-23T06:22:41.964Z,3.88
2023-11-23T06:27:43.250Z,4.25
2023-11-23T06:32:44.629Z,3.92
2023-11-23T06:37:45.860Z,3.03
2023-11-23T06:42:47.073Z,2.65
2023-11-23T06:47:48.405Z,2.90
2023-11-23T06:52:49.708Z,2.50
2023-11-23T06:57:50.997Z,1.92
2023-11-23T07:02:59.380Z,2.42
2023-11-23T07:08:00.650Z,2.40
2023-11-23T07:13:01.862Z,2.15
2023-11-23T07:18:03.261Z,2.10
2023-11-23T07:23:04.509Z,2.22
2023-11-23T07:28:05.731Z,2.25
2023-11-23T07:33:07.486Z,1.60
2023-11-23T07:38:08.880Z,2.40
2023-11-23T07:43:10.113Z,1.70
2023-11-23T07:48:11.441Z,2.00
2023-11-23T07:53:12.723Z,1.80
2023-11-23T07:58:14.056Z,1.90
2023-11-23T08:03:15.334Z,1.92
2023-11-23T08:08:16.597Z,2.40
2023-11-23T08:13:17.846Z,2.17
2023-11-23T08:18:19.121Z,1.92
2023-11-23T08:23:20.397Z,1.73
2023-11-23T08:28:21.709Z,2.03
2023-11-23T08:33:23.026Z,1.98
2023-11-23T08:38:24.271Z,2.08
2023-11-23T08:43:25.493Z,1.63
2023-11-23T08:48:26.821Z,2.20
2023-11-23T08:53:28.061Z,1.70
2023-11-23T08:58:29.803Z,2.17
2023-11-23T09:03:31.288Z,1.63
2023-11-23T09:08:32.594Z,1.67
2023-11-23T09:13:33.810Z,2.00
2023-11-23T09:18:35.179Z,1.67
2023-11-23T09:23:36.451Z,2.45
2023-11-23T09:28:37.676Z,1.73
2023-11-23T09:33:38.964Z,1.83
2023-11-23T09:38:40.231Z,1.98
2023-11-23T09:43:42.319Z,1.38
2023-11-23T09:48:44.901Z,1.80
2023-11-23T09:53:47.029Z,1.67
2023-11-23T09:58:48.686Z,1.55
2023-11-23T10:03:53.691Z,1.55
2023-11-23T10:08:55.007Z,2.03
2023-11-23T10:13:56.239Z,1.75
2023-11-23T10:18:57.570Z,2.22
2023-11-23T10:24:07.921Z,1.83
2023-11-23T10:29:09.189Z,1.60
2023-11-23T10:34:11.037Z,1.40
2023-11-23T10:39:12.967Z,1.48
2023-11-23T10:44:14.257Z,2.53
2023-11-23T10:49:16.970Z,1.80
2023-11-23T10:54:18.252Z,1.63
2023-11-23T10:59:21.147Z,1.50
2023-11-23T11:04:23.214Z,1.65
2023-11-23T11:09:27.407Z,1.67
2023-11-23T11:14:34.475Z,1.30
2023-11-23T11:20:01.831Z,2.08
2023-11-23T11:25:03.185Z,1.20
2023-11-23T11:30:04.678Z,1.38
2023-11-23T11:35:08.497Z,1.52
2023-11-23T11:40:10.193Z,1.60
2023-11-23T11:45:11.426Z,2.33
2023-11-23T11:50:12.670Z,1.80
2023-11-23T11:55:13.892Z,1.55
2023-11-23T12:00:15.281Z,1.23
2023-11-23T12:05:16.505Z,2.13
2023-11-23T12:10:17.751Z,1.20
2023-11-23T12:15:19.249Z,2.00
2023-11-23T12:20:20.613Z,1.60
2023-11-23T12:25:21.835Z,1.33
2023-11-23T12:30:23.060Z,1.52
2023-11-23T12:35:25.329Z,1.60
2023-11-23T12:40:27.659Z,1.48
2023-11-23T12:45:28.945Z,1.90
2023-11-23T12:50:30.441Z,1.38
2023-11-23T12:55:31.685Z,1.13
2023-11-23T13:00:33.021Z,1.30
2023-11-23T13:05:34.257Z,1.35
2023-11-23T13:10:35.493Z,2.75
2023-11-23T13:15:36.758Z,1.48
2023-11-23T13:20:37.983Z,1.95
2023-11-23T13:25:39.213Z,1.40
2023-11-23T13:30:40.521Z,1.85
2023-11-23T13:35:41.770Z,1.90
2023-11-23T13:40:43.018Z,1.92
2023-11-23T13:45:44.315Z,2.08
2023-11-23T13:50:45.596Z,1.75
2023-11-23T13:55:47.199Z,1.80
2023-11-23T14:00:48.502Z,1.25
2023-11-23T14:05:49.729Z,1.77
2023-11-23T14:10:50.999Z,2.00
2023-11-23T14:15:53.270Z,1.23
2023-11-23T14:20:54.587Z,1.75
2023-11-23T14:25:55.869Z,1.70
2023-11-23T14:30:57.072Z,1.70
2023-11-23T14:35:58.490Z,3.17
2023-11-23T14:40:59.797Z,1.73
2023-11-23T14:46:01.116Z,1.75
2023-11-23T14:51:02.450Z,2.17
2023-11-23T14:56:03.846Z,1.98
2023-11-23T15:01:05.760Z,2.03
2023-11-23T15:06:07.134Z,1.95
2023-11-23T15:11:08.376Z,2.55
2023-11-23T15:16:09.899Z,2.33
2023-11-23T15:21:11.241Z,3.03
2023-11-23T15:26:12.495Z,3.50
2023-11-23T15:31:13.987Z,3.47
2023-11-23T15:36:15.322Z,2.75
2023-11-23T15:41:16.581Z,2.88
2023-11-23T15:46:17.861Z,4.20
2023-11-23T15:51:19.444Z,2.72
2023-11-23T15:56:23.357Z,2.85
2023-11-23T16:01:27.046Z,3.67
2023-11-23T16:06:28.329Z,2.40
2023-11-23T16:11:29.567Z,2.75
2023-11-23T16:16:30.828Z,3.40
2023-11-23T16:21:32.109Z,2.95
2023-11-23T16:26:33.401Z,2.70
2023-11-23T16:31:34.661Z,2.50
2023-11-23T16:36:39.785Z,2.55
2023-11-23T16:41:41.881Z,2.08
2023-11-23T16:46:43.737Z,2.40
2023-11-23T16:51:45.017Z,2.50
2023-11-23T16:56:46.351Z,2.60
2023-11-23T17:01:47.935Z,3.67
2023-11-23T17:06:49.237Z,2.55
2023-11-23T17:11:50.535Z,2.95
2023-11-23T17:16:51.807Z,2.75
2023-11-23T17:21:53.607Z,2.90
2023-11-23T17:26:54.861Z,3.58
2023-11-23T17:31:56.118Z,4.00
2023-11-23T17:36:57.332Z,3.63
2023-11-23T17:41:58.555Z,3.78
2023-11-23T17:46:59.818Z,2.72
2023-11-23T17:52:01.065Z,2.55
2023-11-23T17:57:02.299Z,2.28
2023-11-23T18:02:03.996Z,2.05
2023-11-23T18:07:05.281Z,1.55
2023-11-23T18:12:06.837Z,2.00
2023-11-23T18:17:08.392Z,1.80
2023-11-23T18:22:09.866Z,2.08
2023-11-23T18:27:11.181Z,2.35
2023-11-23T18:32:12.403Z,1.48
2023-11-23T18:37:13.657Z,1.50
2023-11-23T18:42:14.888Z,2.40
2023-11-23T18:47:16.169Z,2.65
2023-11-23T18:52:17.409Z,2.55
2023-11-23T18:57:18.724Z,2.00
2023-11-23T19:02:20.204Z,1.80
2023-11-23T19:07:21.529Z,2.63
2023-11-23T19:12:22.951Z,1.83
2023-11-23T19:17:24.245Z,1.58
2023-11-23T19:22:25.695Z,2.53
2023-11-23T19:27:27.106Z,2.13
2023-11-23T19:32:28.441Z,2.58
2023-11-23T19:37:29.833Z,2.10
2023-11-23T19:42:33.171Z,1.77
2023-11-23T19:47:34.593Z,3.00
2023-11-23T19:52:38.850Z,3.22
2023-11-23T19:57:40.583Z,2.45
2023-11-23T20:02:42.092Z,3.35
2023-11-23T20:07:43.343Z,2.78
2023-11-23T20:12:44.608Z,2.05
2023-11-23T20:17:45.877Z,1.58
2023-11-23T20:22:47.148Z,2.08
2023-11-23T20:27:48.392Z,2.63
2023-11-23T20:32:49.651Z,1.77
2023-11-23T20:37:51.890Z,1.35
2023-11-23T20:42:54.171Z,1.70
2023-11-23T20:47:55.482Z,1.65
2023-11-23T20:52:56.776Z,1.63
2023-11-23T20:57:58.174Z,3.60
2023-11-23T21:03:00.187Z,1.83
2023-11-23T21:08:01.706Z,1.65
2023-11-23T21:13:03.031Z,2.03
2023-11-23T21:18:04.337Z,1.65
2023-11-23T21:23:05.687Z,1.70
2023-11-23T21:28:06.961Z,2.10
2023-11-23T21:33:08.223Z,2.63
2023-11-23T21:38:09.681Z,2.28
2023-11-23T21:43:10.922Z,3.38
2023-11-23T21:48:12.305Z,2.47
2023-11-23T21:53:13.621Z,2.10
2023-11-23T21:58:14.894Z,2.47
2023-11-23T22:03:16.269Z,2.40
2023-11-23T22:08:17.570Z,2.20
2023-11-23T22:13:18.954Z,2.00
2023-11-23T22:18:20.419Z,1.92
2023-11-23T22:23:21.862Z,2.05
2023-11-23T22:28:23.316Z,2.25
2023-11-23T22:33:25.122Z,1.15
2023-11-23T22:38:26.604Z,1.73
2023-11-23T22:43:27.998Z,2.03
2023-11-23T22:48:29.283Z,1.70
2023-11-23T22:53:30.569Z,1.50
2023-11-23T22:58:31.787Z,1.55
2023-11-23T23:03:33.914Z,1.63
2023-11-23T23:08:35.202Z,1.70
2023-11-23T23:13:36.456Z,1.80
2023-11-23T23:18:37.756Z,1.70
2023-11-23T23:23:39.170Z,1.92
2023-11-23T23:28:40.392Z,1.88
2023-11-23T23:33:41.709Z,1.38
2023-11-23T23:38:44.091Z,2.17
2023-11-23T23:43:45.928Z,1.35
2023-11-23T23:48:47.237Z,1.40
2023-11-23T23:53:48.600Z,1.60
2023-11-23T23:58:49.813Z,2.30
